createdAt,value
2023-05-14T00:00:01.370Z,101730
2023-05-14T00:05:00.633Z,101740
2023-05-14T00:10:00.773Z,101730
2023-05-14T00:15:01.045Z,101740
2023-05-14T00:20:00.879Z,101710
2023-05-14T00:25:01.343Z,101730
2023-05-14T00:30:01.123Z,101720
2023-05-14T00:35:00.735Z,101710
2023-05-14T00:40:01.416Z,101690
2023-05-14T00:45:00.927Z,101700
2023-05-14T00:50:00.762Z,101700
2023-05-14T00:55:00.715Z,101700
2023-05-14T01:00:00.738Z,101690
2023-05-14T01:05:00.935Z,101680
2023-05-14T01:10:00.672Z,101690
2023-05-14T01:15:01.069Z,101680
2023-05-14T01:20:00.822Z,101690
2023-05-14T01:25:01.565Z,101680
2023-05-14T01:30:00.973Z,101700
2023-05-14T01:35:01.076Z,101670
2023-05-14T01:40:01.037Z,101680
2023-05-14T01:45:00.872Z,101680
2023-05-14T01:50:00.640Z,101690
2023-05-14T01:55:01.011Z,101680
2023-05-14T02:00:00.518Z,101670
2023-05-14T02:05:00.860Z,101660
2023-05-14T02:10:00.477Z,101670
2023-05-14T02:15:01.263Z,101660
2023-05-14T02:20:00.810Z,101650
2023-05-14T02:25:02.056Z,101660
2023-05-14T02:30:01.030Z,101650
2023-05-14T02:35:00.701Z,101650
2023-05-14T02:40:00.462Z,101620
2023-05-14T02:45:00.925Z,101660
2023-05-14T02:50:01.309Z,101630
2023-05-14T02:55:00.790Z,101650
2023-05-14T03:00:00.995Z,101640
2023-05-14T03:05:00.904Z,101640
2023-05-14T03:10:01.332Z,101610
2023-05-14T03:15:01.081Z,101620
2023-05-14T03:20:01.146Z,101630
2023-05-14T03:25:00.605Z,101620
2023-05-14T03:30:02.225Z,101620
2023-05-14T03:35:01.116Z,101590
2023-05-14T03:40:00.539Z,101610
2023-05-14T03:45:01.232Z,101630
2023-05-14T03:50:00.590Z,101610
2023-05-14T03:55:00.605Z,101610
2023-05-14T04:00:01.170Z,101600
2023-05-14T04:05:00.647Z,101610
2023-05-14T04:10:03.331Z,101620
2023-05-14T04:15:00.874Z,101600
2023-05-14T04:20:01.538Z,101610
2023-05-14T04:25:00.869Z,101600
2023-05-14T04:30:00.666Z,101610
2023-05-14T04:35:01.876Z,101610
2023-05-14T04:40:01.012Z,101590
2023-05-14T04:45:00.690Z,101600
2023-05-14T04:50:00.839Z,101620
2023-05-14T04:55:01.104Z,101600
2023-05-14T05:00:01.253Z,101610
2023-05-14T05:05:00.737Z,101600
2023-05-14T05:10:01.297Z,101610
2023-05-14T05:15:00.901Z,101600
2023-05-14T05:20:00.871Z,101610
2023-05-14T05:25:00.657Z,101600
2023-05-14T05:30:01.186Z,101610
2023-05-14T05:35:00.749Z,101620
2023-05-14T05:40:01.185Z,101610
2023-05-14T05:45:00.633Z,101630
2023-05-14T05:50:00.972Z,101600
2023-05-14T05:55:01.096Z,101610
2023-05-14T06:00:01.186Z,101620
2023-05-14T06:05:00.552Z,101600
2023-05-14T06:10:00.938Z,101630
2023-05-14T06:15:00.974Z,101620
2023-05-14T06:20:01.617Z,101610
2023-05-14T06:25:00.740Z,101610
2023-05-14T06:30:00.656Z,101630
2023-05-14T06:35:00.861Z,101610
2023-05-14T06:40:00.895Z,101630
2023-05-14T06:45:00.833Z,101630
2023-05-14T06:50:00.606Z,101630
2023-05-14T06:55:01.235Z,101610
2023-05-14T07:00:03.302Z,101630
2023-05-14T07:05:01.186Z,101620
2023-05-14T07:10:00.950Z,101620
2023-05-14T07:15:00.845Z,101620
2023-05-14T07:20:00.670Z,101640
2023-05-14T07:25:00.914Z,101620
2023-05-14T07:30:00.855Z,101580
2023-05-14T07:35:01.580Z,101600
2023-05-14T07:40:00.758Z,101590
2023-05-14T07:45:00.992Z,101590
2023-05-14T07:50:00.826Z,101570
2023-05-14T07:55:00.804Z,101580
2023-05-14T08:00:00.855Z,101590
2023-05-14T08:05:00.946Z,101580
2023-05-14T08:10:01.061Z,101580
2023-05-14T08:15:00.945Z,101570
2023-05-14T08:20:00.738Z,101570
2023-05-14T08:25:00.598Z,101560
2023-05-14T08:30:00.809Z,101580
2023-05-14T08:35:01.343Z,101560
2023-05-14T08:40:00.678Z,101570
2023-05-14T08:45:00.768Z,101580
2023-05-14T08:50:01.863Z,101570
2023-05-14T08:55:01.008Z,101570
2023-05-14T09:00:01.182Z,101560
2023-05-14T09:05:00.586Z,101560
2023-05-14T09:10:00.877Z,101560
2023-05-14T09:15:00.854Z,101530
2023-05-14T09:20:00.566Z,101550
2023-05-14T09:25:00.680Z,101540
2023-05-14T09:30:02.533Z,101520
2023-05-14T09:35:01.023Z,101540
2023-05-14T09:40:00.910Z,101520
2023-05-14T09:45:01.334Z,101520
2023-05-14T09:50:01.918Z,101520
2023-05-14T10:00:00.551Z,101500
2023-05-14T10:05:00.449Z,101530
2023-05-14T10:10:00.657Z,101520
2023-05-14T10:15:00.495Z,101510
2023-05-14T10:20:00.498Z,101490
2023-05-14T10:25:00.448Z,101500
2023-05-14T10:30:00.575Z,101500
2023-05-14T10:35:00.505Z,101510
2023-05-14T10:40:00.494Z,101500
2023-05-14T10:45:00.521Z,101490
2023-05-14T10:50:00.451Z,101480
2023-05-14T10:55:03.079Z,101500
2023-05-14T11:00:00.718Z,101500
2023-05-14T11:05:00.497Z,101480
2023-05-14T11:10:00.454Z,101440
2023-05-14T11:15:00.508Z,101470
2023-05-14T11:20:00.521Z,101440
2023-05-14T11:25:00.545Z,101450
2023-05-14T11:30:00.516Z,101430
2023-05-14T11:35:00.852Z,101440
2023-05-14T11:40:00.696Z,101430
2023-05-14T11:45:00.504Z,101440
2023-05-14T11:50:00.543Z,101430
2023-05-14T11:55:00.469Z,101410
2023-05-14T12:00:00.559Z,101410
2023-05-14T12:05:00.450Z,101400
2023-05-14T12:10:00.512Z,101400
2023-05-14T12:15:00.628Z,101410
2023-05-14T12:20:00.602Z,101400
2023-05-14T12:25:00.455Z,101410
2023-05-14T12:30:12.829Z,101400
2023-05-14T12:35:00.433Z,101390
2023-05-14T12:40:00.513Z,101370
2023-05-14T12:45:00.479Z,101380
2023-05-14T12:50:00.440Z,101370
2023-05-14T12:55:00.437Z,101370
2023-05-14T13:00:00.445Z,101360
2023-05-14T13:05:00.450Z,101380
2023-05-14T13:10:00.461Z,101370
2023-05-14T13:15:00.443Z,101350
2023-05-14T13:20:00.460Z,101350
2023-05-14T13:25:00.440Z,101350
2023-05-14T13:30:00.500Z,101350
2023-05-14T13:35:00.443Z,101350
2023-05-14T13:40:00.460Z,101350
2023-05-14T13:45:00.460Z,101360
2023-05-14T13:50:00.440Z,101330
2023-05-14T13:55:00.432Z,101330
2023-05-14T14:00:00.520Z,101340
2023-05-14T14:05:00.554Z,101320
2023-05-14T14:10:00.425Z,101320
2023-05-14T14:15:00.530Z,101310
2023-05-14T14:20:00.458Z,101310
2023-05-14T14:25:00.490Z,101310
2023-05-14T14:30:00.464Z,101300
2023-05-14T14:35:00.438Z,101300
2023-05-14T14:40:00.457Z,101300
2023-05-14T14:45:00.458Z,101300
2023-05-14T14:50:00.536Z,101290
2023-05-14T14:55:00.474Z,101290
2023-05-14T15:00:02.376Z,101310
2023-05-14T15:05:00.446Z,101300
2023-05-14T15:10:00.525Z,101290
2023-05-14T15:15:00.450Z,101270
2023-05-14T15:20:00.477Z,101290
2023-05-14T15:25:00.477Z,101290
2023-05-14T15:30:00.467Z,101290
2023-05-14T15:35:00.497Z,101300
2023-05-14T15:40:00.447Z,101300
2023-05-14T15:45:00.452Z,101270
2023-05-14T15:50:00.473Z,101280
2023-05-14T15:55:00.447Z,101280
2023-05-14T16:00:00.538Z,101250
2023-05-14T16:05:00.453Z,101250
2023-05-14T16:10:00.542Z,101260
2023-05-14T16:15:00.449Z,101250
2023-05-14T16:20:00.476Z,101260
2023-05-14T16:25:03.146Z,101250
2023-05-14T16:30:00.435Z,101250
2023-05-14T16:35:00.455Z,101250
2023-05-14T16:40:00.549Z,101250
2023-05-14T16:45:00.536Z,101240
2023-05-14T16:50:00.443Z,101240
2023-05-14T16:55:00.536Z,101250
2023-05-14T17:00:00.485Z,101260
2023-05-14T17:05:00.542Z,101240
2023-05-14T17:10:00.509Z,101260
2023-05-14T17:15:02.487Z,101250
2023-05-14T17:20:00.918Z,101260
2023-05-14T17:25:00.450Z,101250
2023-05-14T17:30:00.448Z,101260
2023-05-14T17:35:00.510Z,101260
2023-05-14T17:40:00.421Z,101270
2023-05-14T17:45:00.450Z,101290
2023-05-14T17:50:00.485Z,101270
2023-05-14T17:55:00.491Z,101280
2023-05-14T18:00:00.470Z,101300
2023-05-14T18:05:00.480Z,101300
2023-05-14T18:10:00.469Z,101300
2023-05-14T18:15:00.451Z,101300
2023-05-14T18:20:00.473Z,101310
2023-05-14T18:25:00.457Z,101310
2023-05-14T18:30:00.478Z,101330
2023-05-14T18:35:00.470Z,101330
2023-05-14T18:40:00.457Z,101310
2023-05-14T18:45:00.553Z,101300
2023-05-14T18:50:00.605Z,101310
2023-05-14T18:55:00.457Z,101320
2023-05-14T19:00:00.464Z,101330
2023-05-14T19:05:00.450Z,101340
2023-05-14T19:10:00.458Z,101320
2023-05-14T19:15:00.577Z,101330
2023-05-14T19:20:00.456Z,101340
2023-05-14T19:25:00.465Z,101320
2023-05-14T19:30:00.456Z,101310
2023-05-14T19:35:00.591Z,101320
2023-05-14T19:40:00.515Z,101350
2023-05-14T19:45:00.448Z,101330
2023-05-14T19:50:00.504Z,101340
2023-05-14T19:55:00.458Z,101350
2023-05-14T20:00:00.447Z,101330
2023-05-14T20:05:00.524Z,101380
2023-05-14T20:10:00.554Z,101350
2023-05-14T20:15:00.468Z,101340
2023-05-14T20:20:00.567Z,101340
2023-05-14T20:25:00.478Z,101350
2023-05-14T20:30:00.454Z,101350
2023-05-14T20:35:00.539Z,101340
2023-05-14T20:40:00.616Z,101330
2023-05-14T20:45:00.531Z,101340
2023-05-14T20:50:00.490Z,101350
2023-05-14T20:55:02.076Z,101320
2023-05-14T21:00:00.547Z,101330
2023-05-14T21:05:00.561Z,101330
2023-05-14T21:10:00.487Z,101340
2023-05-14T21:15:00.520Z,101340
2023-05-14T21:20:00.551Z,101330
2023-05-14T21:25:00.454Z,101350
2023-05-14T21:30:00.451Z,101340
2023-05-14T21:35:00.455Z,101310
2023-05-14T21:40:00.462Z,101310
2023-05-14T21:45:00.543Z,101320
2023-05-14T21:50:00.455Z,101340
2023-05-14T21:55:00.468Z,101310
2023-05-14T22:00:00.456Z,101320
2023-05-14T22:05:00.532Z,101290
2023-05-14T22:10:00.486Z,101300
2023-05-14T22:15:00.539Z,101280
2023-05-14T22:20:00.443Z,101300
2023-05-14T22:25:00.449Z,101290
2023-05-14T22:30:00.526Z,101300
2023-05-14T22:35:00.473Z,101280
2023-05-14T22:40:00.472Z,101280
2023-05-14T22:45:00.596Z,101270
2023-05-14T22:50:00.512Z,101270
2023-05-14T22:55:00.457Z,101270
2023-05-14T23:00:00.449Z,101260
2023-05-14T23:05:00.614Z,101270
2023-05-14T23:10:00.663Z,101260
2023-05-14T23:15:00.514Z,101270
2023-05-14T23:20:00.688Z,101240
2023-05-14T23:25:00.510Z,101260
2023-05-14T23:30:00.704Z,101240
2023-05-14T23:35:00.534Z,101270
2023-05-14T23:40:00.545Z,101250
2023-05-14T23:45:00.455Z,101240
2023-05-14T23:50:00.443Z,101220
2023-05-14T23:55:00.444Z,101220
